Time;durP1;ratioP1;P1;durP2;ratioP2;P2;SDS_P1;SDS_P2;PMS_P1;PMS_P2;Temp;Humidity;BMP_temperature;BMP_pressure;BME280_temperature;BME280_humidity;BME280_pressure;Samples;Min_cycle;Max_cycle;Signal;HPM_P1;HPM_P2
2023/08/30 00:01:08;;;;;;;2.90;2.60;;;22.70;99.90;;;;;;5121275;28;20294;-78
2023/08/30 00:03:34;;;;;;;4.10;3.00;;;22.70;99.90;;;;;;5105502;28;20168;-78
2023/08/30 00:06:04;;;;;;;4.47;2.77;;;22.70;99.90;;;;;;5121896;27;21013;-78
2023/08/30 00:08:30;;;;;;;3.10;2.80;;;22.60;99.90;;;;;;5124869;27;20560;-78
2023/08/30 00:10:58;;;;;;;5.20;3.40;;;22.60;99.90;;;;;;5125017;27;20954;-78
2023/08/30 00:13:25;;;;;;;3.50;3.20;;;22.60;99.90;;;;;;5109188;28;20414;-79
2023/08/30 00:15:51;;;;;;;3.20;2.90;;;22.50;99.90;;;;;;5109463;28;20495;-79
2023/08/30 00:18:18;;;;;;;4.67;3.60;;;22.50;99.90;;;;;;5124921;27;20392;-79
2023/08/30 00:20:44;;;;;;;3.30;3.00;;;22.40;99.90;;;;;;5124566;27;20247;-79
2023/08/30 00:23:10;;;;;;;3.30;2.87;;;22.30;99.90;;;;;;5123440;27;20400;-78
2023/08/30 00:25:35;;;;;;;4.33;2.80;;;22.30;99.90;;;;;;5109323;28;21019;-77
2023/08/30 00:28:01;;;;;;;3.30;2.67;;;22.20;99.90;;;;;;5124188;27;20187;-78
2023/08/30 00:30:27;;;;;;;3.80;3.40;;;22.10;99.90;;;;;;5124479;27;20306;-78
2023/08/30 00:32:52;;;;;;;3.13;2.83;;;22.10;99.90;;;;;;5109093;28;20171;-78
2023/08/30 00:35:18;;;;;;;3.13;2.83;;;22.00;99.90;;;;;;5124675;27;20282;-78
2023/08/30 00:37:44;;;;;;;3.37;2.60;;;22.00;99.90;;;;;;5124651;27;20171;-78
2023/08/30 00:40:10;;;;;;;3.40;3.10;;;21.90;99.90;;;;;;5108739;28;20231;-78
2023/08/30 00:42:35;;;;;;;3.57;3.00;;;21.90;99.90;;;;;;5124515;27;20179;-78
2023/08/30 00:45:01;;;;;;;3.33;3.03;;;21.90;99.90;;;;;;5108266;28;20943;-79
2023/08/30 00:47:27;;;;;;;3.70;3.10;;;21.90;99.90;;;;;;5108748;28;20168;-78
2023/08/30 00:49:53;;;;;;;4.20;3.10;;;21.80;99.90;;;;;;5108228;28;20234;-79
2023/08/30 00:52:19;;;;;;;3.60;3.30;;;21.90;99.90;;;;;;5108644;28;20912;-78
2023/08/30 00:54:44;;;;;;;4.90;2.97;;;21.90;99.90;;;;;;5124378;27;20739;-78
2023/08/30 00:57:10;;;;;;;3.80;3.33;;;21.90;99.90;;;;;;5124143;27;20820;-79
2023/08/30 00:59:37;;;;;;;4.60;3.10;;;21.80;99.90;;;;;;5123996;27;20706;-78
2023/08/30 01:02:04;;;;;;;3.43;2.77;;;21.90;99.90;;;;;;5124257;27;20489;-79
2023/08/30 01:04:30;;;;;;;3.33;2.93;;;21.90;99.90;;;;;;5108160;28;20932;-78
2023/08/30 01:06:56;;;;;;;3.27;2.93;;;21.90;99.90;;;;;;5123828;27;20449;-78
2023/08/30 01:09:22;;;;;;;4.80;3.60;;;21.90;99.90;;;;;;5123904;27;20187;-79
2023/08/30 01:11:47;;;;;;;3.07;2.80;;;21.90;99.90;;;;;;5108184;28;20217;-78
2023/08/30 01:14:30;;;;;;;3.97;3.27;;;21.90;99.90;;;;;;5123541;27;20423;-78
2023/08/30 01:16:57;;;;;;;3.23;2.93;;;21.90;99.90;;;;;;5107872;28;20267;-78
2023/08/30 01:19:47;;;;;;;4.70;3.67;;;21.90;99.90;;;;;;5107854;28;20846;-79
2023/08/30 01:22:43;;;;;;;3.33;3.03;;;21.90;99.90;;;;;;5123578;27;20443;-79
2023/08/30 01:25:26;;;;;;;3.90;3.23;;;21.80;99.90;;;;;;5122957;27;20455;-78
2023/08/30 01:27:52;;;;;;;4.80;3.63;;;21.80;99.90;;;;;;5122406;27;20422;-79
2023/08/30 01:30:19;;;;;;;4.43;3.77;;;21.80;99.90;;;;;;5106302;28;20508;-78
2023/08/30 01:32:46;;;;;;;4.00;3.60;;;21.70;99.90;;;;;;5123529;27;20465;-78
2023/08/30 01:35:17;;;;;;;3.60;3.30;;;21.70;99.90;;;;;;5107828;28;20626;-79
2023/08/30 01:37:46;;;;;;;3.30;3.00;;;21.70;99.90;;;;;;5107950;28;20480;-78
2023/08/30 01:40:15;;;;;;;3.77;3.47;;;21.60;99.90;;;;;;5122935;27;20484;-78
2023/08/30 01:42:42;;;;;;;4.97;3.90;;;21.60;99.90;;;;;;5108131;28;20422;-78
2023/08/30 01:45:13;;;;;;;5.23;3.20;;;21.60;99.90;;;;;;5123137;27;20743;-78
2023/08/30 01:47:40;;;;;;;4.73;4.33;;;21.60;99.90;;;;;;5123398;27;20409;-79
2023/08/30 01:50:07;;;;;;;4.00;3.60;;;21.50;99.90;;;;;;5107469;28;20442;-79
2023/08/30 01:55:20;;;;;;;3.43;3.10;;;21.60;99.90;;;;;;5107640;28;20603;-78
2023/08/30 01:57:45;;;;;;;5.53;3.77;;;21.50;99.90;;;;;;5123038;27;20436;-78
2023/08/30 02:00:12;;;;;;;3.60;3.30;;;21.50;99.90;;;;;;5122738;27;20538;-79
2023/08/30 02:02:38;;;;;;;4.13;3.40;;;21.60;99.90;;;;;;5123332;27;20676;-78
2023/08/30 02:05:04;;;;;;;3.40;3.10;;;21.50;99.90;;;;;;5122427;27;20490;-79
2023/08/30 02:07:39;;;;;;;3.67;3.37;;;21.50;99.90;;;;;;5107189;28;20217;-78
2023/08/30 02:10:09;;;;;;;5.50;5.00;;;21.50;99.90;;;;;;5106914;28;20432;-79
2023/08/30 02:12:46;;;;;;;4.77;4.17;;;21.50;99.90;;;;;;5107008;28;20463;-78
2023/08/30 02:15:13;;;;;;;4.47;4.07;;;21.40;99.90;;;;;;5122653;27;20454;-78
2023/08/30 02:17:39;;;;;;;8.27;3.97;;;21.40;99.90;;;;;;5122755;27;20412;-78
2023/08/30 02:20:06;;;;;;;4.50;4.10;;;21.40;99.90;;;;;;5106400;28;20487;-78
2023/08/30 02:22:33;;;;;;;5.60;3.67;;;21.40;99.90;;;;;;5122549;27;20560;-79
2023/08/30 02:24:59;;;;;;;3.90;3.50;;;21.40;99.90;;;;;;5121686;27;20523;-78
2023/08/30 02:27:25;;;;;;;4.23;3.80;;;21.30;99.90;;;;;;5121885;27;20759;-79
2023/08/30 02:29:50;;;;;;;5.20;3.97;;;21.30;99.90;;;;;;5105880;28;20440;-81
2023/08/30 02:32:20;;;;;;;4.00;3.70;;;21.30;99.90;;;;;;5121859;27;20637;-79
2023/08/30 02:34:49;;;;;;;5.30;4.23;;;21.30;99.90;;;;;;5106437;28;20775;-78
2023/08/30 02:37:15;;;;;;;4.63;4.00;;;21.20;99.90;;;;;;5122100;27;20487;-78
2023/08/30 02:39:40;;;;;;;3.97;3.67;;;21.20;99.90;;;;;;5106537;28;20581;-79
2023/08/30 02:42:06;;;;;;;3.90;3.50;;;21.20;99.90;;;;;;5122207;27;20183;-79
2023/08/30 02:44:32;;;;;;;3.30;3.00;;;21.20;99.90;;;;;;5106703;28;20225;-78
2023/08/30 02:46:58;;;;;;;4.30;3.90;;;21.20;99.90;;;;;;5106337;28;20228;-78
2023/08/30 02:49:23;;;;;;;5.37;4.90;;;21.10;99.90;;;;;;5105937;28;20411;-78
2023/08/30 02:51:49;;;;;;;4.73;3.93;;;21.10;99.90;;;;;;5121901;27;20648;-78
2023/08/30 02:54:14;;;;;;;4.57;4.13;;;21.10;99.90;;;;;;5121558;27;20250;-78
2023/08/30 02:56:43;;;;;;;5.40;4.83;;;21.10;99.90;;;;;;5122295;27;20183;-78
2023/08/30 02:59:09;;;;;;;4.43;4.03;;;21.10;99.90;;;;;;5121389;27;20293;-78
2023/08/30 03:01:35;;;;;;;4.70;4.27;;;21.10;99.90;;;;;;5106190;28;20428;-79
2023/08/30 03:04:00;;;;;;;5.20;4.57;;;21.00;99.90;;;;;;5106040;28;20498;-78
2023/08/30 03:06:26;;;;;;;4.93;4.10;;;21.10;99.90;;;;;;5106551;28;20428;-79
2023/08/30 03:08:54;;;;;;;4.80;4.23;;;21.00;99.90;;;;;;5105741;28;20176;-79
2023/08/30 03:11:19;;;;;;;4.20;3.60;;;21.00;99.90;;;;;;5106198;28;20728;-78
2023/08/30 03:13:45;;;;;;;6.07;3.33;;;21.00;99.90;;;;;;5105808;28;20420;-78
2023/08/30 03:16:18;;;;;;;4.57;4.13;;;21.00;99.90;;;;;;5106295;28;20655;-78
2023/08/30 03:18:44;;;;;;;5.60;4.33;;;21.00;99.90;;;;;;5105505;28;20258;-77
2023/08/30 03:21:10;;;;;;;4.50;3.87;;;20.90;99.90;;;;;;5105846;28;20934;-78
2023/08/30 03:23:36;;;;;;;4.13;3.60;;;20.90;99.90;;;;;;5105583;28;20629;-78
2023/08/30 03:26:13;;;;;;;5.47;4.13;;;20.80;99.90;;;;;;5121413;28;20774;-79
2023/08/30 03:28:40;;;;;;;5.17;4.30;;;20.80;99.90;;;;;;5121419;28;20990;-78
2023/08/30 03:31:16;;;;;;;4.83;4.33;;;20.80;99.90;;;;;;5119185;28;20794;-78
2023/08/30 03:33:42;;;;;;;4.40;4.00;;;20.80;99.90;;;;;;5105423;28;20938;-79
2023/08/30 03:36:12;;;;;;;4.37;3.97;;;20.80;99.90;;;;;;5106221;28;20890;-78
2023/08/30 03:38:38;;;;;;;7.20;4.70;;;20.80;99.90;;;;;;5104703;28;20409;-79
2023/08/30 03:41:04;;;;;;;4.83;4.07;;;20.70;99.90;;;;;;5122378;27;20471;-78
2023/08/30 03:43:33;;;;;;;7.70;4.47;;;20.70;99.90;;;;;;5124982;27;20408;-79
2023/08/30 03:46:05;;;;;;;5.57;4.00;;;20.70;99.90;;;;;;5109758;28;20496;-78
2023/08/30 03:48:31;;;;;;;4.20;3.70;;;20.60;99.90;;;;;;5124824;27;20404;-79
2023/08/30 03:50:58;;;;;;;5.67;4.37;;;20.50;99.90;;;;;;5109684;28;20810;-79
2023/08/30 03:53:24;;;;;;;5.50;4.50;;;20.50;99.90;;;;;;5124969;27;20407;-79
2023/08/30 03:55:50;;;;;;;5.27;4.23;;;20.50;99.90;;;;;;5107207;28;20450;-78
2023/08/30 03:58:18;;;;;;;5.83;3.83;;;20.40;99.90;;;;;;5106707;28;20404;-78
2023/08/30 04:00:44;;;;;;;5.40;4.13;;;20.40;99.90;;;;;;5108633;28;20478;-78
2023/08/30 04:03:10;;;;;;;5.47;4.30;;;20.40;99.90;;;;;;5107736;28;20959;-79
2023/08/30 04:05:39;;;;;;;4.80;4.30;;;20.40;99.90;;;;;;5107583;28;20702;-78
2023/08/30 04:08:06;;;;;;;4.50;3.90;;;20.40;99.90;;;;;;5107199;28;20424;-78
2023/08/30 04:10:39;;;;;;;4.90;4.30;;;20.40;99.90;;;;;;5107944;28;20547;-79
2023/08/30 04:13:05;;;;;;;4.80;4.20;;;20.40;99.90;;;;;;5106695;28;20935;-79
2023/08/30 04:15:38;;;;;;;5.00;4.20;;;20.40;99.90;;;;;;5107584;28;21048;-79
2023/08/30 04:18:05;;;;;;;4.87;4.10;;;20.40;99.90;;;;;;5107480;28;20782;-79
2023/08/30 04:20:32;;;;;;;4.23;3.27;;;20.40;99.90;;;;;;5106350;27;20540;-78
2023/08/30 04:22:59;;;;;;;4.63;4.00;;;20.40;99.90;;;;;;5107770;28;20950;-78
2023/08/30 04:25:25;;;;;;;4.13;3.73;;;20.40;99.90;;;;;;5106432;28;20447;-78
2023/08/30 04:27:51;;;;;;;5.13;4.60;;;20.30;99.90;;;;;;5107015;28;20422;-79
2023/08/30 04:30:17;;;;;;;5.40;4.33;;;20.30;99.90;;;;;;5107431;27;20691;-79
2023/08/30 04:32:42;;;;;;;4.50;4.10;;;20.20;99.90;;;;;;5106676;28;20203;-79
2023/08/30 04:35:09;;;;;;;4.83;4.30;;;20.20;99.90;;;;;;5103418;28;20543;-79
2023/08/30 04:37:35;;;;;;;4.33;3.93;;;20.10;99.90;;;;;;5114723;27;20546;-79
2023/08/30 04:40:00;;;;;;;5.07;4.57;;;20.00;99.90;;;;;;5086490;28;20533;-79
2023/08/30 04:42:26;;;;;;;5.10;4.60;;;20.00;99.90;;;;;;5096748;28;20211;-78
2023/08/30 04:44:54;;;;;;;4.30;3.90;;;19.90;99.90;;;;;;5105522;28;20748;-79
2023/08/30 04:47:20;;;;;;;5.53;4.70;;;19.90;99.90;;;;;;5105804;28;20732;-78
2023/08/30 04:49:53;;;;;;;4.90;4.40;;;19.90;99.90;;;;;;5105498;28;20512;-78
2023/08/30 04:52:19;;;;;;;3.87;3.47;;;19.90;99.90;;;;;;5106455;28;20388;-79
2023/08/30 04:54:45;;;;;;;4.70;4.27;;;19.90;99.90;;;;;;5104444;28;20542;-79
2023/08/30 04:57:14;;;;;;;5.10;4.60;;;19.90;99.90;;;;;;5101569;27;20175;-79
2023/08/30 04:59:40;;;;;;;4.10;3.70;;;19.90;99.90;;;;;;5110450;27;20489;-79
2023/08/30 05:02:06;;;;;;;4.73;4.33;;;19.90;99.90;;;;;;5101462;28;20477;-79
2023/08/30 05:04:32;;;;;;;4.37;3.97;;;20.10;99.90;;;;;;5102283;28;20520;-80
2023/08/30 05:06:58;;;;;;;3.67;3.37;;;20.30;99.90;;;;;;5114009;27;20173;-81
2023/08/30 05:09:24;;;;;;;4.30;3.90;;;20.40;99.90;;;;;;5101122;28;20191;-81
2023/08/30 05:11:51;;;;;;;4.53;3.67;;;20.60;99.90;;;;;;5110428;27;20180;-80
2023/08/30 05:14:17;;;;;;;4.00;3.60;;;20.90;99.90;;;;;;5099990;28;20886;-81
2023/08/30 05:16:42;;;;;;;4.93;4.37;;;20.90;99.90;;;;;;5101186;28;20445;-80
2023/08/30 05:19:08;;;;;;;4.47;4.03;;;20.90;99.90;;;;;;5097463;28;20736;-79
2023/08/30 05:21:34;;;;;;;4.70;3.70;;;21.10;99.90;;;;;;5106165;27;20199;-78
2023/08/30 05:24:00;;;;;;;5.00;4.40;;;21.10;99.90;;;;;;5095122;28;20246;-79
2023/08/30 05:26:25;;;;;;;7.67;5.57;;;21.10;99.90;;;;;;5099491;27;20192;-79
2023/08/30 05:28:51;;;;;;;8.00;5.83;;;21.10;99.90;;;;;;5096339;28;20351;-79
2023/08/30 05:31:16;;;;;;;8.40;5.50;;;21.10;99.90;;;;;;5098213;28;20277;-79
2023/08/30 05:33:42;;;;;;;7.00;6.30;;;21.20;99.90;;;;;;5097063;28;20184;-79
2023/08/30 05:36:08;;;;;;;9.87;7.40;;;21.20;99.90;;;;;;5102081;27;20319;-78
2023/08/30 05:38:33;;;;;;;8.50;7.00;;;21.20;99.90;;;;;;5101604;27;20203;-78
2023/08/30 05:40:59;;;;;;;8.43;6.93;;;21.30;99.90;;;;;;5085936;28;20265;-79
2023/08/30 05:43:25;;;;;;;9.63;7.40;;;21.30;99.90;;;;;;5100478;28;20207;-79
2023/08/30 05:45:51;;;;;;;11.27;8.33;;;21.40;99.90;;;;;;5098083;28;20524;-79
2023/08/30 05:48:16;;;;;;;10.20;9.17;;;21.40;99.90;;;;;;5101689;28;20182;-79
2023/08/30 05:50:42;;;;;;;12.07;9.83;;;21.40;99.90;;;;;;5102897;27;20881;-79
2023/08/30 05:53:08;;;;;;;14.23;11.80;;;21.50;99.90;;;;;;5099603;28;20415;-78
2023/08/30 05:55:34;;;;;;;17.47;15.60;;;21.50;99.90;;;;;;5103688;28;20206;-79
2023/08/30 05:57:59;;;;;;;13.90;11.80;;;21.50;99.90;;;;;;5100851;28;20201;-78
2023/08/30 06:00:25;;;;;;;13.10;10.60;;;21.50;99.90;;;;;;5101607;28;20216;-79
2023/08/30 06:02:52;;;;;;;455.60;230.20;;;21.60;99.90;;;;;;5098833;28;20184;-80
2023/08/30 06:05:18;;;;;;;22.73;17.20;;;21.60;99.90;;;;;;5093192;28;20520;-78
2023/08/30 06:07:44;;;;;;;9.70;8.70;;;21.70;99.90;;;;;;5092974;28;20428;-79
2023/08/30 06:10:10;;;;;;;11.27;9.00;;;21.70;99.90;;;;;;5099280;28;20538;-79
2023/08/30 06:12:35;;;;;;;11.27;8.37;;;21.70;99.90;;;;;;5099321;28;20526;-79
2023/08/30 06:15:01;;;;;;;10.10;7.97;;;21.80;99.90;;;;;;5113904;27;20644;-78
2023/08/30 06:17:27;;;;;;;9.90;8.20;;;21.80;99.90;;;;;;5100451;28;20198;-79
2023/08/30 06:19:52;;;;;;;10.97;8.70;;;21.80;99.90;;;;;;5101304;28;20239;-79
2023/08/30 06:22:18;;;;;;;11.57;8.97;;;21.80;99.90;;;;;;5101245;28;20250;-79
2023/08/30 06:24:44;;;;;;;11.30;8.13;;;21.80;99.90;;;;;;5099415;28;20436;-78
2023/08/30 06:27:09;;;;;;;9.63;8.40;;;21.80;99.90;;;;;;5097212;28;20250;-79
2023/08/30 06:29:35;;;;;;;10.50;8.97;;;21.90;99.90;;;;;;5088663;28;20723;-78
2023/08/30 06:32:01;;;;;;;10.27;8.47;;;21.90;99.90;;;;;;5106417;27;20192;-79
2023/08/30 06:34:26;;;;;;;10.87;8.83;;;21.90;99.90;;;;;;5091322;28;20191;-78
2023/08/30 06:36:52;;;;;;;9.73;8.50;;;21.90;99.90;;;;;;5101075;28;20253;-79
2023/08/30 06:39:18;;;;;;;9.37;8.13;;;22.00;99.90;;;;;;5097038;28;20207;-79
2023/08/30 06:41:44;;;;;;;10.33;8.57;;;22.00;99.90;;;;;;5100482;28;20197;-79
2023/08/30 06:44:10;;;;;;;9.97;8.27;;;22.00;99.90;;;;;;5098078;28;20696;-81
2023/08/30 06:46:37;;;;;;;36.70;22.77;;;22.10;99.90;;;;;;5092980;28;20212;-79
2023/08/30 06:49:03;;;;;;;14.40;10.20;;;22.10;99.90;;;;;;5096949;28;20448;-79
2023/08/30 06:51:29;;;;;;;10.33;8.40;;;22.20;99.90;;;;;;5098002;28;21113;-79
2023/08/30 06:53:57;;;;;;;11.30;8.23;;;22.30;99.90;;;;;;5105115;27;20448;-79
2023/08/30 06:56:22;;;;;;;10.80;8.43;;;22.30;99.90;;;;;;5102025;28;20215;-78
2023/08/30 06:58:48;;;;;;;9.43;8.17;;;22.30;99.90;;;;;;5098651;28;20463;-83
2023/08/30 07:01:14;;;;;;;10.40;8.60;;;22.20;99.90;;;;;;5094187;28;20219;-84
2023/08/30 07:03:40;;;;;;;11.13;8.80;;;22.30;99.90;;;;;;5099601;28;20176;-83
2023/08/30 07:06:05;;;;;;;9.73;7.37;;;22.30;99.90;;;;;;5100504;28;20796;-76
2023/08/30 07:08:32;;;;;;;11.87;8.63;;;22.30;99.90;;;;;;5100689;28;20175;-82
2023/08/30 07:10:58;;;;;;;10.03;8.10;;;22.20;99.90;;;;;;5096671;28;20204;-75
2023/08/30 07:13:23;;;;;;;11.33;8.37;;;22.20;99.90;;;;;;5097322;28;20700;-81
2023/08/30 07:15:49;;;;;;;12.10;8.13;;;22.20;99.90;;;;;;5098724;28;20512;-82
2023/08/30 07:18:15;;;;;;;11.73;8.73;;;22.30;99.90;;;;;;5097978;28;20844;-75
2023/08/30 07:20:40;;;;;;;10.47;7.63;;;22.40;99.90;;;;;;5096351;28;20235;-75
2023/08/30 07:23:06;;;;;;;11.00;8.30;;;22.50;99.90;;;;;;5096557;28;20225;-76
2023/08/30 07:25:36;;;;;;;9.97;8.13;;;22.50;99.90;;;;;;5098141;28;20273;-82
2023/08/30 07:28:03;;;;;;;9.90;7.40;;;22.60;99.90;;;;;;5098291;28;20629;-75
2023/08/30 07:30:29;;;;;;;10.20;7.70;;;22.60;99.90;;;;;;5098967;28;20456;-79
2023/08/30 07:32:55;;;;;;;10.10;7.50;;;22.60;99.90;;;;;;5102327;28;21237;-82
2023/08/30 07:35:20;;;;;;;9.40;7.03;;;22.70;99.90;;;;;;5101185;28;20448;-82
2023/08/30 07:37:46;;;;;;;10.60;7.73;;;22.70;99.90;;;;;;5099128;28;20262;-82
2023/08/30 07:40:12;;;;;;;9.07;7.33;;;22.80;99.90;;;;;;5097888;28;20223;-75
2023/08/30 07:42:38;;;;;;;9.60;7.30;;;22.90;99.90;;;;;;5092406;28;20363;-81
2023/08/30 07:45:04;;;;;;;11.60;8.20;;;22.90;99.90;;;;;;5091523;28;20203;-75
2023/08/30 07:47:30;;;;;;;10.50;7.67;;;23.00;99.90;;;;;;5093748;28;20213;-75
2023/08/30 07:49:55;;;;;;;9.60;7.47;;;23.00;99.90;;;;;;5094026;28;20450;-82
2023/08/30 07:52:21;;;;;;;8.33;7.50;;;23.00;99.90;;;;;;5098062;28;20263;-79
2023/08/30 07:54:47;;;;;;;8.00;6.83;;;23.00;99.90;;;;;;5121739;27;20205;-75
2023/08/30 07:57:12;;;;;;;9.27;7.17;;;23.10;99.90;;;;;;5093570;28;20786;-80
2023/08/30 07:59:38;;;;;;;11.33;7.00;;;23.00;99.90;;;;;;5089657;28;20315;-82
2023/08/30 08:02:07;;;;;;;7.40;5.73;;;23.00;99.90;;;;;;5102923;28;20182;-76
2023/08/30 08:04:34;;;;;;;9.30;7.03;;;23.00;99.90;;;;;;5098207;28;20453;-83
2023/08/30 08:07:00;;;;;;;7.60;6.90;;;23.10;99.90;;;;;;5101409;28;20517;-82
2023/08/30 08:09:25;;;;;;;14.97;7.37;;;23.10;99.90;;;;;;5102805;28;20424;-75
2023/08/30 08:11:51;;;;;;;7.77;6.00;;;23.10;99.90;;;;;;5103191;28;20422;-75
2023/08/30 08:14:17;;;;;;;7.47;6.70;;;23.20;99.90;;;;;;5101064;28;20290;-83
2023/08/30 08:16:42;;;;;;;7.67;6.33;;;23.30;99.90;;;;;;5095811;28;20177;-82
2023/08/30 08:19:09;;;;;;;8.70;6.60;;;23.50;99.90;;;;;;5101484;28;20247;-83
2023/08/30 08:21:35;;;;;;;10.10;6.90;;;23.60;99.90;;;;;;5102444;28;20569;-75
2023/08/30 08:24:01;;;;;;;9.20;7.23;;;23.70;99.90;;;;;;5105147;28;20548;-83
2023/08/30 08:26:27;;;;;;;8.60;7.30;;;23.70;99.90;;;;;;5097645;28;20192;-83
2023/08/30 08:28:54;;;;;;;9.23;7.17;;;23.80;99.90;;;;;;5119882;27;20426;-75
2023/08/30 08:31:20;;;;;;;11.47;8.27;;;23.80;99.90;;;;;;5104353;28;20435;-75
2023/08/30 08:33:46;;;;;;;8.97;7.17;;;23.80;99.90;;;;;;5101885;28;20597;-83
2023/08/30 08:36:11;;;;;;;9.10;7.07;;;23.80;99.90;;;;;;5100348;28;20205;-75
2023/08/30 08:38:38;;;;;;;23.60;14.90;;;23.80;99.90;;;;;;5093408;28;20178;-82
2023/08/30 08:41:12;;;;;;;13.53;10.93;;;23.80;99.90;;;;;;5099746;28;20708;-76
2023/08/30 08:43:40;;;;;;;11.23;8.57;;;23.70;99.90;;;;;;5094395;28;20791;-75
2023/08/30 08:46:06;;;;;;;10.40;8.67;;;23.80;99.90;;;;;;5103661;28;21167;-82
2023/08/30 08:48:36;;;;;;;10.70;6.50;;;23.80;99.90;;;;;;5114742;27;20418;-75
2023/08/30 08:51:01;;;;;;;7.67;6.70;;;23.80;99.90;;;;;;5110816;27;21046;-75
2023/08/30 08:53:28;;;;;;;9.13;7.23;;;23.80;99.90;;;;;;5100294;28;20571;-82
2023/08/30 08:55:56;;;;;;;9.03;7.23;;;23.80;99.90;;;;;;5101381;28;20517;-80
2023/08/30 08:58:23;;;;;;;9.80;7.90;;;23.80;99.90;;;;;;5102100;28;20442;-75
2023/08/30 09:00:49;;;;;;;10.57;9.47;;;23.70;99.90;;;;;;5100600;28;20514;-81
2023/08/30 09:03:14;;;;;;;11.97;8.30;;;23.70;99.90;;;;;;5101352;28;20463;-76
2023/08/30 09:05:40;;;;;;;11.47;8.87;;;23.70;99.90;;;;;;5100121;28;20449;-75
2023/08/30 09:08:06;;;;;;;10.60;7.67;;;23.60;99.90;;;;;;5091162;28;20187;-75
2023/08/30 09:10:33;;;;;;;10.97;8.97;;;23.60;99.90;;;;;;5089559;28;20991;-83
2023/08/30 09:12:59;;;;;;;11.90;8.33;;;23.60;99.90;;;;;;5098882;28;20184;-82
2023/08/30 09:15:32;;;;;;;13.00;9.20;;;23.60;99.90;;;;;;5098428;28;20822;-82
2023/08/30 09:17:58;;;;;;;8.03;7.23;;;23.60;99.90;;;;;;5095872;28;20402;-82
2023/08/30 09:20:24;;;;;;;9.70;8.00;;;23.60;99.90;;;;;;5093897;28;20489;-82
2023/08/30 09:22:50;;;;;;;8.40;6.83;;;23.70;99.90;;;;;;5102090;28;20713;-77
2023/08/30 09:25:26;;;;;;;11.20;8.30;;;23.70;99.90;;;;;;5102432;28;20659;-83
2023/08/30 09:27:59;;;;;;;11.53;8.87;;;23.70;99.90;;;;;;5103904;27;20417;-75
2023/08/30 09:30:25;;;;;;;9.47;7.40;;;23.60;99.90;;;;;;5103734;28;20450;-82
2023/08/30 09:32:51;;;;;;;14.70;9.53;;;23.70;99.90;;;;;;5103499;28;20422;-82
2023/08/30 09:35:16;;;;;;;11.50;9.70;;;23.70;99.90;;;;;;5101810;28;20450;-83
2023/08/30 09:37:45;;;;;;;11.70;8.47;;;23.70;99.90;;;;;;5102629;28;20216;-78
2023/08/30 09:40:11;;;;;;;10.97;8.30;;;23.70;99.90;;;;;;5103729;28;20229;-75
2023/08/30 09:42:42;;;;;;;9.00;7.50;;;23.70;99.90;;;;;;5088531;28;20428;-80
2023/08/30 09:45:18;;;;;;;12.07;8.60;;;23.80;99.90;;;;;;5096729;28;20195;-82
2023/08/30 09:47:48;;;;;;;11.73;8.53;;;23.70;99.90;;;;;;5094080;28;21179;-82
2023/08/30 09:50:18;;;;;;;10.77;7.97;;;23.70;99.90;;;;;;5096261;28;20534;-82
2023/08/30 09:52:48;;;;;;;10.00;7.60;;;23.80;99.90;;;;;;5098766;28;20414;-83
2023/08/30 09:55:15;;;;;;;12.57;9.50;;;23.80;99.90;;;;;;5102362;28;20433;-75
2023/08/30 09:57:43;;;;;;;11.43;8.23;;;23.80;99.90;;;;;;5101460;28;20922;-75
2023/08/30 10:00:12;;;;;;;10.63;8.70;;;23.80;99.90;;;;;;5098909;28;20489;-82
2023/08/30 10:02:41;;;;;;;12.17;9.07;;;23.80;99.90;;;;;;5098053;27;20777;-75
2023/08/30 10:05:08;;;;;;;10.70;8.50;;;23.80;99.90;;;;;;5100424;28;20896;-82
2023/08/30 10:07:37;;;;;;;9.87;7.77;;;23.80;99.90;;;;;;5099074;28;20492;-82
2023/08/30 10:10:06;;;;;;;11.63;8.53;;;23.80;99.90;;;;;;5099068;28;20460;-83
2023/08/30 10:12:32;;;;;;;10.60;8.23;;;23.80;99.90;;;;;;5098865;28;20415;-75
2023/08/30 10:14:58;;;;;;;9.30;8.23;;;23.90;99.90;;;;;;5098170;28;20635;-75
2023/08/30 10:17:28;;;;;;;11.27;9.37;;;24.00;99.90;;;;;;5097162;28;20252;-82
2023/08/30 10:19:56;;;;;;;9.93;8.30;;;24.00;99.90;;;;;;5093037;27;20503;-75
2023/08/30 10:22:23;;;;;;;10.30;8.53;;;24.10;99.90;;;;;;5104118;27;20450;-82
2023/08/30 10:24:57;;;;;;;10.50;8.00;;;24.20;99.90;;;;;;5095224;28;20493;-83
2023/08/30 10:27:25;;;;;;;9.50;8.20;;;24.30;99.90;;;;;;5100012;28;20423;-75
2023/08/30 10:29:51;;;;;;;9.07;7.23;;;24.30;99.90;;;;;;5101209;28;20607;-83
2023/08/30 10:32:21;;;;;;;8.60;7.17;;;24.40;99.90;;;;;;5101223;28;20629;-75
2023/08/30 10:34:51;;;;;;;10.27;7.60;;;24.40;99.90;;;;;;5101064;28;20727;-75
2023/08/30 10:37:24;;;;;;;8.60;7.70;;;24.50;99.90;;;;;;5099571;28;20419;-75
2023/08/30 10:39:49;;;;;;;7.80;6.50;;;24.50;99.90;;;;;;5114161;27;20505;-83
2023/08/30 10:42:16;;;;;;;7.37;6.00;;;24.60;99.90;;;;;;5097843;28;20830;-76
2023/08/30 10:45:05;;;;;;;9.70;6.87;;;24.60;99.90;;;;;;5089258;28;20203;-75
2023/08/30 10:47:37;;;;;;;8.50;7.40;;;24.70;99.90;;;;;;5102649;28;20419;-82
2023/08/30 10:50:30;;;;;;;9.57;7.37;;;24.80;99.90;;;;;;5101980;28;20854;-82
2023/08/30 10:52:56;;;;;;;9.13;7.77;;;24.90;99.90;;;;;;5092287;28;20929;-75
2023/08/30 10:55:23;;;;;;;8.83;7.30;;;24.90;99.90;;;;;;5096258;28;20451;-83
2023/08/30 10:57:59;;;;;;;10.13;7.03;;;25.00;99.90;;;;;;5104542;27;20537;-75
2023/08/30 11:00:25;;;;;;;7.50;6.30;;;25.10;99.90;;;;;;5104700;27;20791;-82
2023/08/30 11:02:51;;;;;;;9.63;7.40;;;25.10;99.90;;;;;;5117334;27;20522;-77
2023/08/30 11:05:19;;;;;;;7.57;6.53;;;25.20;99.90;;;;;;5090121;28;20451;-82
2023/08/30 11:07:45;;;;;;;6.67;5.97;;;25.30;99.90;;;;;;5092774;28;20412;-75
2023/08/30 11:10:11;;;;;;;7.03;5.60;;;25.30;99.90;;;;;;5093931;28;20475;-83
2023/08/30 11:12:37;;;;;;;6.77;6.07;;;25.40;99.90;;;;;;5100530;28;20833;-82
2023/08/30 11:15:03;;;;;;;7.37;6.30;;;25.50;99.90;;;;;;5099180;28;20540;-75
2023/08/30 11:17:28;;;;;;;6.60;6.00;;;25.50;99.90;;;;;;5124555;27;20177;-75
2023/08/30 11:20:11;;;;;;;5.40;4.90;;;25.50;99.90;;;;;;5096995;28;20484;-75
2023/08/30 11:22:48;;;;;;;5.23;4.57;;;25.60;99.90;;;;;;5101964;28;20582;-75
2023/08/30 11:25:15;;;;;;;6.30;5.33;;;25.60;99.90;;;;;;5096069;28;20444;-82
2023/08/30 11:27:42;;;;;;;5.87;4.20;;;25.70;99.90;;;;;;5120053;27;20420;-83
2023/08/30 11:30:09;;;;;;;5.57;4.60;;;25.80;99.90;;;;;;5121717;27;20447;-75
2023/08/30 11:32:39;;;;;;;5.63;4.90;;;25.80;99.90;;;;;;5104967;28;20550;-75
2023/08/30 11:35:06;;;;;;;4.57;4.17;;;25.90;99.90;;;;;;5109843;28;20933;-83
2023/08/30 11:37:32;;;;;;;4.70;3.73;;;26.00;99.90;;;;;;5102208;28;20641;-76
2023/08/30 11:39:58;;;;;;;4.37;3.90;;;26.00;99.90;;;;;;5099803;28;20904;-75
2023/08/30 11:42:25;;;;;;;5.20;4.70;;;26.00;99.90;;;;;;5099772;28;20429;-75
2023/08/30 11:44:51;;;;;;;5.87;4.00;;;26.00;99.90;;;;;;5101055;28;20451;-75
2023/08/30 11:47:24;;;;;;;5.03;4.63;;;26.10;99.90;;;;;;5103080;28;20511;-75
2023/08/30 11:49:53;;;;;;;4.10;3.70;;;26.00;99.90;;;;;;5101243;28;20523;-82
2023/08/30 11:52:23;;;;;;;5.07;3.93;;;26.10;99.90;;;;;;5096171;28;20526;-75
2023/08/30 11:54:51;;;;;;;4.63;3.77;;;26.20;99.90;;;;;;5099663;28;20475;-76
2023/08/30 11:57:18;;;;;;;5.00;4.40;;;26.20;99.90;;;;;;5101319;28;20467;-83
2023/08/30 11:59:43;;;;;;;5.07;4.03;;;26.10;99.90;;;;;;5098566;28;20794;-77
2023/08/30 12:02:11;;;;;;;5.27;3.67;;;26.20;99.90;;;;;;5096289;28;20567;-82
2023/08/30 12:04:41;;;;;;;3.83;3.53;;;26.20;99.90;;;;;;5102525;28;20287;-84
2023/08/30 12:07:07;;;;;;;6.17;4.37;;;26.20;99.90;;;;;;5103504;28;20428;-76
2023/08/30 12:09:34;;;;;;;3.83;3.53;;;26.30;99.90;;;;;;5099335;28;20479;-76
2023/08/30 12:12:13;;;;;;;4.00;3.50;;;26.40;99.90;;;;;;5102776;28;20176;-76
2023/08/30 12:14:39;;;;;;;4.60;3.47;;;26.40;99.90;;;;;;5111319;27;20869;-77
2023/08/30 12:17:05;;;;;;;5.73;3.80;;;26.50;99.90;;;;;;5099455;28;20424;-83
2023/08/30 12:19:34;;;;;;;4.23;3.20;;;26.50;99.90;;;;;;5101854;28;20296;-77
2023/08/30 12:22:10;;;;;;;4.63;3.30;;;26.40;99.90;;;;;;5096854;28;20804;-76
2023/08/30 12:24:46;;;;;;;3.70;3.40;;;26.60;99.90;;;;;;5103507;27;20478;-76
2023/08/30 12:27:12;;;;;;;3.73;3.40;;;26.70;99.90;;;;;;5098557;28;20730;-84
2023/08/30 12:29:38;;;;;;;3.23;2.93;;;26.70;99.90;;;;;;5098067;28;20926;-76
2023/08/30 12:32:04;;;;;;;3.10;2.80;;;26.80;99.90;;;;;;5099309;28;20402;-76
2023/08/30 12:34:30;;;;;;;3.50;3.20;;;26.80;99.90;;;;;;5100387;28;20258;-84
2023/08/30 12:36:55;;;;;;;3.90;3.60;;;26.80;99.90;;;;;;5102836;28;20491;-84
2023/08/30 12:39:21;;;;;;;4.20;3.80;;;26.80;99.90;;;;;;5092792;28;20260;-76
2023/08/30 12:41:47;;;;;;;4.20;3.80;;;26.90;99.90;;;;;;5095035;28;20183;-83
2023/08/30 12:44:12;;;;;;;4.67;3.70;;;26.90;99.90;;;;;;5093683;28;20236;-84
2023/08/30 12:46:38;;;;;;;3.93;3.60;;;26.90;99.90;;;;;;5097359;28;20226;-83